Roblin, Canada
Current Conditions -  °F | °C
As of 1:34 AM on Sunday 23 Nov 2014 (Local Time) from CYQV Reporting Station
Light Snow Light Snow  
Wind Chill: -17°   Ceiling: 800
Heat Index: -8°   Visibility: 0.75mi
Dew Point: -9°   Wind: 18mph
Humidity: 93%   Direction: 50°NE
Pressure: 29.31"   Gusts: 24mph
Location:  51.23°N, 101.35°W
Report Text: CYQV 230734Z AUTO 05016G21KT 3/4SM -SN VV008 M08/M09 A2931 RMK SLP956
Loading
Personal Weather Stations






























Interactive Weather Map New forecast layout! Learn more

10-Day Weather Forecast

Advertisements
Track Severe Weather on mobile